Time;durP1;ratioP1;P1;durP2;ratioP2;P2;SDS_P1;SDS_P2;PMS_P1;PMS_P2;Temp;Humidity;BMP_temperature;BMP_pressure;BME280_temperature;BME280_humidity;BME280_pressure;Samples;Min_cycle;Max_cycle;Signal;HPM_P1;HPM_P2
2021/09/12 00:02:08;;;;;;;12.32;7.60;;;;;;;;;;5012151;28;20104;-66
2021/09/12 00:04:35;;;;;;;11.63;7.47;;;;;;;;;;5012372;28;20408;-64
2021/09/12 00:07:02;;;;;;;12.18;8.60;;;;;;;;;;5012356;28;20100;-64
2021/09/12 00:09:28;;;;;;;12.35;8.18;;;;;;;;;;5012559;28;20054;-64
2021/09/12 00:11:55;;;;;;;11.35;7.30;;;;;;;;;;5012004;28;20574;-64
2021/09/12 00:14:21;;;;;;;10.23;7.65;;;;;;;;;;4994863;28;20097;-65
2021/09/12 00:16:48;;;;;;;12.10;8.02;;;;;;;;;;5011936;28;20060;-64
2021/09/12 00:19:15;;;;;;;11.73;7.70;;;;;;;;;;5011980;28;20096;-64
2021/09/12 00:21:41;;;;;;;13.25;7.65;;;;;;;;;;5011840;28;20096;-64
2021/09/12 00:24:08;;;;;;;9.43;7.18;;;;;;;;;;5012124;28;20049;-64
2021/09/12 00:26:35;;;;;;;10.20;7.35;;;;;;;;;;5011709;28;20058;-65
2021/09/12 00:29:03;;;;;;;8.88;7.03;;;;;;;;;;5011877;28;20112;-65
2021/09/12 00:31:29;;;;;;;11.88;7.50;;;;;;;;;;5011844;28;20480;-65
2021/09/12 00:33:56;;;;;;;12.68;7.60;;;;;;;;;;5012223;28;20045;-64
2021/09/12 00:36:23;;;;;;;9.07;6.78;;;;;;;;;;5011991;28;20481;-66
2021/09/12 00:38:49;;;;;;;10.80;7.05;;;;;;;;;;5011788;28;20513;-65
2021/09/12 00:41:16;;;;;;;8.60;7.35;;;;;;;;;;5011875;28;20092;-65
2021/09/12 00:43:43;;;;;;;10.27;7.53;;;;;;;;;;5011541;28;20112;-65
2021/09/12 00:46:09;;;;;;;14.60;9.25;;;;;;;;;;4994495;28;20108;-65
2021/09/12 00:48:36;;;;;;;11.32;7.78;;;;;;;;;;5028190;28;20103;-65
2021/09/12 00:51:06;;;;;;;11.63;8.15;;;;;;;;;;5031554;28;20096;-65
2021/09/12 00:53:36;;;;;;;14.68;8.88;;;;;;;;;;5031480;28;20045;-65
2021/09/12 00:56:03;;;;;;;9.57;8.15;;;;;;;;;;5031447;28;20045;-65
2021/09/12 00:58:30;;;;;;;12.48;9.32;;;;;;;;;;5015141;28;20380;-65
2021/09/12 01:00:56;;;;;;;14.10;9.43;;;;;;;;;;4994096;28;20555;-65
2021/09/12 01:03:23;;;;;;;12.20;9.30;;;;;;;;;;5013491;28;20054;-65
2021/09/12 01:05:50;;;;;;;13.48;9.35;;;;;;;;;;5015563;28;20045;-65
2021/09/12 01:08:18;;;;;;;13.48;10.05;;;;;;;;;;5023258;28;20497;-65
2021/09/12 01:10:45;;;;;;;12.15;9.13;;;;;;;;;;4998093;28;20104;-65
2021/09/12 01:13:12;;;;;;;12.93;8.57;;;;;;;;;;4981907;28;20568;-65
2021/09/12 01:15:38;;;;;;;11.43;8.55;;;;;;;;;;5015385;28;20050;-64
2021/09/12 01:18:05;;;;;;;12.85;8.80;;;;;;;;;;5015093;28;20504;-65
2021/09/12 01:20:31;;;;;;;14.85;9.32;;;;;;;;;;5015203;28;20123;-66
2021/09/12 01:22:58;;;;;;;15.18;9.52;;;;;;;;;;5014989;28;20050;-66
2021/09/12 01:25:25;;;;;;;16.50;8.93;;;;;;;;;;5015180;28;20579;-64
2021/09/12 01:27:51;;;;;;;14.48;9.48;;;;;;;;;;5015133;28;20054;-66
2021/09/12 01:30:18;;;;;;;11.60;8.52;;;;;;;;;;5015248;28;20100;-66
2021/09/12 01:32:44;;;;;;;16.17;9.32;;;;;;;;;;5014727;28;20081;-65
2021/09/12 01:35:11;;;;;;;12.73;8.60;;;;;;;;;;5015183;28;20049;-65
2021/09/12 01:37:38;;;;;;;14.88;9.05;;;;;;;;;;5014837;28;20045;-65
2021/09/12 01:40:05;;;;;;;12.18;8.65;;;;;;;;;;5012217;28;20057;-65
2021/09/12 01:42:31;;;;;;;14.63;9.35;;;;;;;;;;5034490;28;20471;-65
2021/09/12 01:44:58;;;;;;;13.00;9.35;;;;;;;;;;5034548;28;20057;-65
2021/09/12 01:47:24;;;;;;;17.65;8.88;;;;;;;;;;5016570;28;20479;-66
2021/09/12 01:49:51;;;;;;;15.57;9.68;;;;;;;;;;5014740;28;20057;-65
2021/09/12 01:52:18;;;;;;;12.18;8.20;;;;;;;;;;5014503;28;20046;-65
2021/09/12 01:54:44;;;;;;;13.95;9.30;;;;;;;;;;5014630;28;20077;-66
2021/09/12 01:57:11;;;;;;;12.68;9.13;;;;;;;;;;5014581;28;20123;-66
2021/09/12 01:59:37;;;;;;;13.50;8.18;;;;;;;;;;5014572;28;20058;-65
2021/09/12 02:02:04;;;;;;;11.80;8.30;;;;;;;;;;5014204;28;20050;-64
2021/09/12 02:04:31;;;;;;;12.75;8.13;;;;;;;;;;5014575;28;20092;-66
2021/09/12 02:06:58;;;;;;;12.82;8.30;;;;;;;;;;5014389;28;20104;-64
2021/09/12 02:09:27;;;;;;;13.93;8.52;;;;;;;;;;4997077;28;20496;-65
2021/09/12 02:11:54;;;;;;;12.23;9.52;;;;;;;;;;5014180;28;20046;-65
2021/09/12 02:14:21;;;;;;;11.70;8.80;;;;;;;;;;5013226;28;20405;-64
2021/09/12 02:16:48;;;;;;;14.38;8.30;;;;;;;;;;5026130;28;20092;-64
2021/09/12 02:19:15;;;;;;;14.70;8.65;;;;;;;;;;5034077;28;20057;-65
2021/09/12 02:21:41;;;;;;;12.90;9.15;;;;;;;;;;5033765;28;20075;-64
2021/09/12 02:24:08;;;;;;;16.90;10.15;;;;;;;;;;5034043;28;20284;-65
2021/09/12 02:26:34;;;;;;;17.02;11.02;;;;;;;;;;5025082;28;20471;-64
2021/09/12 02:29:01;;;;;;;16.80;9.57;;;;;;;;;;5014120;28;20053;-64
2021/09/12 02:31:28;;;;;;;17.85;9.25;;;;;;;;;;5013960;28;20050;-64
2021/09/12 02:33:54;;;;;;;25.83;11.18;;;;;;;;;;5013732;28;20113;-65
2021/09/12 02:36:21;;;;;;;27.25;9.98;;;;;;;;;;5016270;28;20042;-63
2021/09/12 02:38:48;;;;;;;31.05;10.48;;;;;;;;;;5013806;28;20111;-64
2021/09/12 02:41:14;;;;;;;36.78;12.57;;;;;;;;;;5013970;28;20293;-64
2021/09/12 02:43:41;;;;;;;26.10;10.00;;;;;;;;;;5013613;28;20108;-65
2021/09/12 02:46:08;;;;;;;28.60;9.38;;;;;;;;;;5013667;28;20046;-66
2021/09/12 02:48:34;;;;;;;19.85;8.55;;;;;;;;;;5013569;28;20112;-64
2021/09/12 02:51:01;;;;;;;25.38;10.07;;;;;;;;;;5013649;28;20057;-65
2021/09/12 02:53:28;;;;;;;32.00;9.25;;;;;;;;;;5013485;28;20073;-64
2021/09/12 02:55:54;;;;;;;27.38;9.18;;;;;;;;;;5013681;28;20057;-64
2021/09/12 02:58:21;;;;;;;27.90;9.10;;;;;;;;;;5013501;28;20049;-63
2021/09/12 03:00:47;;;;;;;31.15;9.65;;;;;;;;;;5013235;28;20046;-64
2021/09/12 03:03:14;;;;;;;23.25;7.88;;;;;;;;;;5013162;28;20046;-64
2021/09/12 03:05:41;;;;;;;24.13;7.95;;;;;;;;;;5013569;28;20056;-64
2021/09/12 03:08:07;;;;;;;21.17;9.07;;;;;;;;;;5013298;28;20053;-64
2021/09/12 03:10:34;;;;;;;22.45;8.82;;;;;;;;;;5013309;28;20108;-64
2021/09/12 03:13:01;;;;;;;15.73;6.68;;;;;;;;;;5013098;28;20054;-64
2021/09/12 03:15:27;;;;;;;23.40;9.25;;;;;;;;;;5013257;28;20062;-64
2021/09/12 03:17:54;;;;;;;18.33;8.35;;;;;;;;;;5032279;28;20053;-64
2021/09/12 03:20:21;;;;;;;13.98;6.43;;;;;;;;;;5015439;28;20053;-65
2021/09/12 03:22:47;;;;;;;11.15;6.60;;;;;;;;;;5032603;28;20080;-64
2021/09/12 03:25:14;;;;;;;13.05;6.78;;;;;;;;;;5032455;28;20084;-64
2021/09/12 03:27:41;;;;;;;11.32;6.63;;;;;;;;;;5032539;28;20058;-65
2021/09/12 03:30:08;;;;;;;10.52;6.13;;;;;;;;;;5032608;28;20061;-64
2021/09/12 03:32:34;;;;;;;8.38;5.38;;;;;;;;;;5032381;28;20496;-64
2021/09/12 03:35:01;;;;;;;7.50;6.13;;;;;;;;;;5032551;28;20049;-65
2021/09/12 03:37:28;;;;;;;5.90;5.30;;;;;;;;;;5016701;28;20099;-64
2021/09/12 03:39:55;;;;;;;5.97;5.35;;;;;;;;;;5012610;28;20068;-64
2021/09/12 03:42:21;;;;;;;5.97;5.28;;;;;;;;;;5012400;28;20042;-64
2021/09/12 03:44:48;;;;;;;6.43;5.55;;;;;;;;;;5012566;28;20062;-64
2021/09/12 03:47:15;;;;;;;5.53;5.03;;;;;;;;;;5012512;28;20497;-63
2021/09/12 03:49:42;;;;;;;8.20;5.85;;;;;;;;;;5012604;28;20495;-64
2021/09/12 03:52:08;;;;;;;6.50;5.57;;;;;;;;;;5012595;28;20078;-64
2021/09/12 03:54:35;;;;;;;5.65;5.05;;;;;;;;;;5012580;28;20467;-65
2021/09/12 03:57:02;;;;;;;7.05;5.82;;;;;;;;;;5020544;28;20104;-65
2021/09/12 03:59:28;;;;;;;6.97;5.60;;;;;;;;;;5032433;28;20471;-64
2021/09/12 04:01:55;;;;;;;6.93;5.93;;;;;;;;;;5031744;28;20107;-65
2021/09/12 04:04:22;;;;;;;7.22;5.45;;;;;;;;;;5031992;28;20053;-65
2021/09/12 04:06:49;;;;;;;7.00;5.97;;;;;;;;;;5031800;28;20045;-64
2021/09/12 04:09:15;;;;;;;7.82;6.00;;;;;;;;;;5031917;28;20076;-65
2021/09/12 04:11:42;;;;;;;6.13;5.53;;;;;;;;;;5031994;28;20053;-65
2021/09/12 04:14:08;;;;;;;6.53;5.80;;;;;;;;;;5023323;28;20456;-65
2021/09/12 04:16:35;;;;;;;7.10;5.18;;;;;;;;;;5012181;28;20050;-64
2021/09/12 04:19:02;;;;;;;7.88;5.80;;;;;;;;;;5012482;28;20053;-64
2021/09/12 04:21:28;;;;;;;9.27;6.05;;;;;;;;;;5012119;28;20053;-65
2021/09/12 04:23:55;;;;;;;5.78;5.13;;;;;;;;;;5011801;28;20066;-64
2021/09/12 04:26:21;;;;;;;4.88;4.35;;;;;;;;;;5012076;28;20053;-64
2021/09/12 04:28:50;;;;;;;5.88;4.93;;;;;;;;;;5011915;28;20524;-64
2021/09/12 04:31:17;;;;;;;25.35;5.85;;;;;;;;;;5012201;28;20050;-64
2021/09/12 04:33:43;;;;;;;11.25;5.45;;;;;;;;;;5011258;28;20049;-64
2021/09/12 04:36:10;;;;;;;34.95;6.55;;;;;;;;;;5011851;28;20556;-63
2021/09/12 04:38:37;;;;;;;10.82;5.93;;;;;;;;;;5011323;28;20050;-64
2021/09/12 04:41:03;;;;;;;42.67;7.82;;;;;;;;;;5011769;28;20077;-64
2021/09/12 04:43:30;;;;;;;26.83;6.93;;;;;;;;;;5011507;28;20520;-64
2021/09/12 04:45:57;;;;;;;19.30;7.53;;;;;;;;;;5011957;28;20050;-65
2021/09/12 04:48:23;;;;;;;17.83;7.60;;;;;;;;;;5012708;28;20053;-64
2021/09/12 04:50:50;;;;;;;10.85;5.85;;;;;;;;;;5012483;28;20046;-64
2021/09/12 04:53:16;;;;;;;8.02;5.82;;;;;;;;;;5011718;28;20501;-65
2021/09/12 04:55:43;;;;;;;8.65;5.40;;;;;;;;;;5029635;28;20046;-65
2021/09/12 04:58:10;;;;;;;6.85;5.50;;;;;;;;;;5031340;28;20049;-65
2021/09/12 05:00:36;;;;;;;9.45;5.68;;;;;;;;;;5024476;28;20109;-65
2021/09/12 05:03:03;;;;;;;9.30;4.80;;;;;;;;;;5012714;28;20050;-63
2021/09/12 05:05:30;;;;;;;9.45;5.07;;;;;;;;;;5031506;28;20049;-65
2021/09/12 05:07:56;;;;;;;9.52;5.18;;;;;;;;;;5031454;28;20095;-63
2021/09/12 05:10:27;;;;;;;9.23;6.43;;;;;;;;;;5031490;28;20061;-64
2021/09/12 05:12:54;;;;;;;11.52;5.22;;;;;;;;;;5030926;28;20053;-64
2021/09/12 05:15:21;;;;;;;9.98;5.90;;;;;;;;;;5031453;28;20053;-64
2021/09/12 05:17:47;;;;;;;8.95;6.20;;;;;;;;;;5031096;28;20057;-64
2021/09/12 05:20:14;;;;;;;11.07;6.03;;;;;;;;;;5031278;28;20103;-64
2021/09/12 05:22:41;;;;;;;6.05;5.10;;;;;;;;;;5026293;28;20046;-65
2021/09/12 05:25:11;;;;;;;14.32;6.05;;;;;;;;;;4985859;28;20056;-64
2021/09/12 05:27:37;;;;;;;12.60;5.65;;;;;;;;;;5025598;28;20041;-64
2021/09/12 05:30:05;;;;;;;7.65;5.43;;;;;;;;;;5030507;28;20049;-64
2021/09/12 05:32:32;;;;;;;7.70;5.10;;;;;;;;;;5031018;28;20488;-64
2021/09/12 05:34:59;;;;;;;15.75;5.68;;;;;;;;;;5031099;28;20467;-64
2021/09/12 05:37:26;;;;;;;7.50;6.38;;;;;;;;;;5030798;28;20049;-64
2021/09/12 05:39:53;;;;;;;11.15;6.28;;;;;;;;;;5030869;28;20107;-64
2021/09/12 05:42:19;;;;;;;9.25;6.30;;;;;;;;;;5031056;28;20042;-64
2021/09/12 05:44:46;;;;;;;15.07;6.53;;;;;;;;;;5030957;28;20057;-64
2021/09/12 05:47:13;;;;;;;14.40;6.18;;;;;;;;;;5030852;28;20050;-64
2021/09/12 05:49:40;;;;;;;14.02;5.82;;;;;;;;;;5033208;28;20052;-64
2021/09/12 05:52:07;;;;;;;10.57;6.32;;;;;;;;;;5034399;28;20057;-64
2021/09/12 05:54:34;;;;;;;8.13;6.43;;;;;;;;;;5034466;28;20100;-64
2021/09/12 05:57:04;;;;;;;14.80;6.07;;;;;;;;;;5034298;28;20057;-64
2021/09/12 05:59:31;;;;;;;8.95;5.80;;;;;;;;;;5034404;28;20059;-63
2021/09/12 06:01:57;;;;;;;7.45;6.55;;;;;;;;;;5033910;28;20045;-64
2021/09/12 06:04:24;;;;;;;7.15;5.90;;;;;;;;;;5033854;28;20049;-63
2021/09/12 06:06:51;;;;;;;7.50;6.05;;;;;;;;;;5033891;28;20057;-64
2021/09/12 06:09:18;;;;;;;10.10;5.65;;;;;;;;;;5034255;28;20065;-64
2021/09/12 06:11:44;;;;;;;8.00;6.00;;;;;;;;;;5033890;28;20053;-64
2021/09/12 06:14:11;;;;;;;7.60;6.25;;;;;;;;;;5033730;28;20500;-64
2021/09/12 06:16:37;;;;;;;11.52;6.25;;;;;;;;;;5033826;28;20050;-64
2021/09/12 06:19:04;;;;;;;12.50;5.72;;;;;;;;;;5034095;28;20053;-64
2021/09/12 06:21:31;;;;;;;20.33;6.72;;;;;;;;;;5033879;28;20492;-64
2021/09/12 06:23:58;;;;;;;9.70;6.53;;;;;;;;;;5031331;28;20049;-64
2021/09/12 06:26:26;;;;;;;8.43;6.90;;;;;;;;;;5031999;28;20076;-65
2021/09/12 06:28:53;;;;;;;12.57;7.15;;;;;;;;;;5031658;28;20504;-64
2021/09/12 06:31:20;;;;;;;9.68;6.03;;;;;;;;;;5031913;28;20045;-64
2021/09/12 06:33:47;;;;;;;12.73;6.53;;;;;;;;;;5031393;28;20471;-64
2021/09/12 06:36:15;;;;;;;9.98;6.90;;;;;;;;;;5031291;28;20049;-65
2021/09/12 06:38:42;;;;;;;9.10;6.93;;;;;;;;;;5031514;28;20502;-64
2021/09/12 06:41:09;;;;;;;8.05;6.35;;;;;;;;;;5031735;28;20057;-64
2021/09/12 06:43:35;;;;;;;7.25;5.80;;;;;;;;;;5031293;28;20405;-64
2021/09/12 06:46:02;;;;;;;7.65;6.35;;;;;;;;;;5031310;28;20056;-64
2021/09/12 06:48:29;;;;;;;7.68;6.50;;;;;;;;;;5031413;28;20049;-64
2021/09/12 06:50:57;;;;;;;6.80;6.10;;;;;;;;;;5030886;28;20076;-64
2021/09/12 06:53:24;;;;;;;7.93;6.30;;;;;;;;;;5030932;28;20107;-64
2021/09/12 06:55:51;;;;;;;8.43;7.25;;;;;;;;;;5031001;28;20095;-64
2021/09/12 06:58:18;;;;;;;7.50;6.68;;;;;;;;;;5031640;28;20103;-64
2021/09/12 07:00:45;;;;;;;8.30;6.63;;;;;;;;;;5030528;28;20045;-64
2021/09/12 07:03:12;;;;;;;8.75;7.60;;;;;;;;;;5012994;28;20068;-65
2021/09/12 07:05:39;;;;;;;9.23;7.90;;;;;;;;;;5030991;28;20056;-65
2021/09/12 07:08:08;;;;;;;13.23;8.18;;;;;;;;;;5013434;28;20507;-65
2021/09/12 07:10:35;;;;;;;10.43;7.95;;;;;;;;;;5019073;28;20050;-65
2021/09/12 07:13:02;;;;;;;9.02;8.13;;;;;;;;;;5017862;28;20072;-65
2021/09/12 07:15:29;;;;;;;9.57;8.05;;;;;;;;;;5016093;28;20108;-65
2021/09/12 07:17:56;;;;;;;9.82;8.27;;;;;;;;;;5015451;28;20053;-65
2021/09/12 07:20:23;;;;;;;8.65;7.57;;;;;;;;;;5016148;28;20103;-65
2021/09/12 07:22:50;;;;;;;8.07;7.13;;;;;;;;;;5017787;28;20080;-65
2021/09/12 07:25:18;;;;;;;9.32;7.75;;;;;;;;;;5019075;28;20504;-65
2021/09/12 07:27:44;;;;;;;9.68;8.68;;;;;;;;;;5018941;28;20203;-65
2021/09/12 07:30:12;;;;;;;9.48;8.48;;;;;;;;;;5016566;28;20598;-65
2021/09/12 07:32:38;;;;;;;9.88;8.55;;;;;;;;;;5016340;28;20091;-64
2021/09/12 07:35:05;;;;;;;9.57;8.57;;;;;;;;;;5018263;28;20057;-65
2021/09/12 07:37:32;;;;;;;8.90;7.70;;;;;;;;;;5018032;28;20050;-65
2021/09/12 07:39:59;;;;;;;9.98;8.98;;;;;;;;;;5019283;28;20049;-65
2021/09/12 07:42:25;;;;;;;10.75;9.25;;;;;;;;;;5017714;28;20092;-64
2021/09/12 07:44:52;;;;;;;11.75;9.32;;;;;;;;;;5019391;28;20092;-65
2021/09/12 07:47:19;;;;;;;12.15;9.82;;;;;;;;;;5017343;28;20389;-64
2021/09/12 07:49:45;;;;;;;13.40;9.98;;;;;;;;;;5019816;28;20049;-64
2021/09/12 07:52:12;;;;;;;12.38;9.77;;;;;;;;;;5017197;28;20131;-65
2021/09/12 07:54:38;;;;;;;11.32;9.25;;;;;;;;;;5022282;28;20132;-64
2021/09/12 07:57:09;;;;;;;12.35;10.27;;;;;;;;;;5017660;28;20054;-65
2021/09/12 07:59:36;;;;;;;12.48;8.88;;;;;;;;;;5018905;28;20060;-65
2021/09/12 08:02:02;;;;;;;10.73;9.63;;;;;;;;;;5017230;28;20046;-65
2021/09/12 08:04:29;;;;;;;10.63;9.52;;;;;;;;;;5022292;28;20057;-65
2021/09/12 08:06:56;;;;;;;10.70;9.57;;;;;;;;;;5018870;28;20061;-65
2021/09/12 08:09:22;;;;;;;10.50;8.75;;;;;;;;;;5018415;28;20045;-65
2021/09/12 08:11:49;;;;;;;9.57;8.57;;;;;;;;;;5017424;28;20053;-64
2021/09/12 08:14:16;;;;;;;9.23;8.23;;;;;;;;;;5019914;28;20606;-65
2021/09/12 08:16:42;;;;;;;9.65;7.47;;;;;;;;;;5019035;28;20085;-65
2021/09/12 08:19:09;;;;;;;10.50;7.47;;;;;;;;;;5017615;28;20045;-65
2021/09/12 08:21:39;;;;;;;9.68;7.22;;;;;;;;;;5021066;28;20049;-65
2021/09/12 08:24:06;;;;;;;9.07;7.25;;;;;;;;;;5018462;28;20048;-64
2021/09/12 08:26:32;;;;;;;7.10;6.50;;;;;;;;;;5019046;28;20112;-65
2021/09/12 08:28:59;;;;;;;7.15;5.93;;;;;;;;;;5016785;28;20060;-65
2021/09/12 08:31:26;;;;;;;7.55;6.85;;;;;;;;;;5016505;28;20563;-65
2021/09/12 08:33:52;;;;;;;7.07;6.38;;;;;;;;;;5019926;28;20049;-65
2021/09/12 08:36:21;;;;;;;6.43;5.82;;;;;;;;;;5018156;28;20438;-65
2021/09/12 08:38:47;;;;;;;6.22;5.63;;;;;;;;;;5016725;28;20045;-65
2021/09/12 08:41:14;;;;;;;6.88;6.18;;;;;;;;;;5020105;28;20107;-65
2021/09/12 08:43:41;;;;;;;6.55;5.63;;;;;;;;;;5017410;28;20563;-65
2021/09/12 08:46:08;;;;;;;5.82;5.22;;;;;;;;;;5018051;28;20050;-65
2021/09/12 08:48:36;;;;;;;6.65;5.22;;;;;;;;;;5017695;28;20045;-65
2021/09/12 08:51:03;;;;;;;5.60;5.05;;;;;;;;;;5017311;28;20116;-65
2021/09/12 08:53:29;;;;;;;5.45;4.93;;;;;;;;;;5020726;28;20053;-65
2021/09/12 08:55:56;;;;;;;5.70;4.88;;;;;;;;;;5016744;28;20054;-65
2021/09/12 08:58:24;;;;;;;5.57;5.18;;;;;;;;;;5020722;28;20100;-65
2021/09/12 09:00:50;;;;;;;6.50;4.93;;;;;;;;;;5016312;28;20085;-65
2021/09/12 09:03:17;;;;;;;6.63;5.60;;;;;;;;;;5024003;28;20041;-64
2021/09/12 09:05:44;;;;;;;6.05;5.45;;;;;;;;;;5015752;28;20144;-65
2021/09/12 09:08:18;;;;;;;5.90;5.13;;;;;;;;;;5015525;28;20045;-65
2021/09/12 09:10:49;;;;;;;5.97;5.38;;;;;;;;;;5023635;28;20046;-65
2021/09/12 09:13:31;;;;;;;4.78;4.20;;;;;;;;;;5028487;28;20045;-66
2021/09/12 09:15:59;;;;;;;5.37;4.87;;;;;;;;;;5014564;28;20052;-74
2021/09/12 09:18:37;;;;;;;8.88;4.88;;;;;;;;;;5025734;28;20100;-72
2021/09/12 09:21:32;;;;;;;5.20;4.70;;;;;;;;;;5019966;28;20111;-72
2021/09/12 09:24:22;;;;;;;6.47;4.03;;;;;;;;;;5020392;28;20423;-71
2021/09/12 09:26:54;;;;;;;4.20;3.70;;;;;;;;;;5029624;28;20053;-71
2021/09/12 09:29:27;;;;;;;4.95;4.43;;;;;;;;;;5024786;28;20046;-73
2021/09/12 09:32:08;;;;;;;3.78;3.47;;;;;;;;;;5020423;28;20104;-69
2021/09/12 09:34:37;;;;;;;4.35;3.83;;;;;;;;;;5024716;28;20061;-71
2021/09/12 09:37:21;;;;;;;3.78;3.47;;;;;;;;;;5021946;28;20049;-69
2021/09/12 09:39:50;;;;;;;3.58;2.85;;;;;;;;;;5020799;28;20050;-73
2021/09/12 09:42:35;;;;;;;3.90;3.28;;;;;;;;;;5019784;28;20056;-70
2021/09/12 09:45:06;;;;;;;4.78;3.30;;;;;;;;;;5021688;28;20058;-72
2021/09/12 09:47:33;;;;;;;4.85;3.08;;;;;;;;;;5010739;28;20046;-72
2021/09/12 09:50:20;;;;;;;4.03;2.58;;;;;;;;;;5021485;28;20057;-70
2021/09/12 09:52:50;;;;;;;2.50;2.30;;;;;;;;;;5024269;28;20464;-72
2021/09/12 09:55:20;;;;;;;2.92;2.08;;;;;;;;;;5028375;28;20045;-70
2021/09/12 09:57:51;;;;;;;2.30;2.10;;;;;;;;;;5002499;28;20505;-71
2021/09/12 10:00:19;;;;;;;5.43;2.10;;;;;;;;;;5025289;28;20045;-72
2021/09/12 10:02:46;;;;;;;2.30;1.92;;;;;;;;;;5018494;28;20096;-71
2021/09/12 10:05:16;;;;;;;1.70;1.40;;;;;;;;;;5023107;28;20042;-72
2021/09/12 10:07:44;;;;;;;1.17;1.08;;;;;;;;;;5020067;28;20100;-71
2021/09/12 10:10:12;;;;;;;1.38;1.20;;;;;;;;;;5027496;28;20096;-71
2021/09/12 10:12:47;;;;;;;3.75;1.20;;;;;;;;;;5022750;28;20045;-73
2021/09/12 10:15:18;;;;;;;2.78;1.40;;;;;;;;;;4986465;28;20049;-72
2021/09/12 10:17:46;;;;;;;2.53;1.60;;;;;;;;;;5022725;28;20115;-72
2021/09/12 10:20:16;;;;;;;2.35;1.33;;;;;;;;;;5002390;28;20332;-72
2021/09/12 10:23:02;;;;;;;1.65;1.50;;;;;;;;;;5024956;28;20448;-73
2021/09/12 10:25:33;;;;;;;1.75;1.30;;;;;;;;;;5005789;28;20123;-73
2021/09/12 10:28:01;;;;;;;1.30;1.20;;;;;;;;;;5020127;28;20088;-70
2021/09/12 10:30:39;;;;;;;1.90;1.48;;;;;;;;;;5020189;28;20076;-69
2021/09/12 10:33:05;;;;;;;1.40;1.20;;;;;;;;;;5023356;28;20042;-69
2021/09/12 10:35:38;;;;;;;1.77;1.48;;;;;;;;;;5019295;28;20049;-69
2021/09/12 10:38:13;;;;;;;2.78;1.52;;;;;;;;;;5018527;28;20056;-69
2021/09/12 10:40:45;;;;;;;2.63;1.55;;;;;;;;;;5020494;28;20468;-69
2021/09/12 10:43:38;;;;;;;3.70;3.33;;;;;;;;;;5018753;28;20053;-70
2021/09/12 10:46:04;;;;;;;3.53;3.22;;;;;;;;;;5015185;28;20496;-69
2021/09/12 10:48:32;;;;;;;1.95;1.83;;;;;;;;;;5021077;28;20049;-73
2021/09/12 10:51:00;;;;;;;1.67;1.40;;;;;;;;;;5017832;28;20065;-73
2021/09/12 10:53:42;;;;;;;2.75;1.33;;;;;;;;;;4987811;28;20053;-74
2021/09/12 10:56:13;;;;;;;1.98;1.40;;;;;;;;;;5020915;28;20047;-71
2021/09/12 10:58:40;;;;;;;2.75;1.40;;;;;;;;;;5003180;28;20124;-69
2021/09/12 11:01:08;;;;;;;2.53;1.45;;;;;;;;;;5023265;28;20046;-65
2021/09/12 11:03:35;;;;;;;2.67;1.50;;;;;;;;;;5018714;28;20436;-65
2021/09/12 11:06:07;;;;;;;2.85;1.17;;;;;;;;;;5023758;28;20463;-65
2021/09/12 11:08:38;;;;;;;1.67;1.23;;;;;;;;;;5006670;28;20050;-65
2021/09/12 11:11:06;;;;;;;2.10;1.33;;;;;;;;;;5020889;28;20045;-64
2021/09/12 11:13:36;;;;;;;1.85;1.35;;;;;;;;;;5021256;28;20445;-64
2021/09/12 11:16:06;;;;;;;2.25;1.45;;;;;;;;;;5023695;28;20188;-64
2021/09/12 11:18:59;;;;;;;1.77;1.25;;;;;;;;;;5022611;28;20053;-64
2021/09/12 11:22:05;;;;;;;1.95;1.30;;;;;;;;;;5003729;28;20095;-64
2021/09/12 11:24:32;;;;;;;1.58;1.30;;;;;;;;;;4937872;29;20256;-65
2021/09/12 11:27:03;;;;;;;1.70;1.10;;;;;;;;;;5009382;28;20136;-65
2021/09/12 11:29:32;;;;;;;2.17;1.40;;;;;;;;;;5016763;28;20420;-65
2021/09/12 11:32:28;;;;;;;1.30;1.20;;;;;;;;;;5017378;28;20493;-65
2021/09/12 11:34:54;;;;;;;1.50;1.30;;;;;;;;;;4997464;28;20054;-65
2021/09/12 11:37:23;;;;;;;2.05;1.13;;;;;;;;;;5019361;28;20054;-66
2021/09/12 11:39:56;;;;;;;1.50;1.20;;;;;;;;;;5020255;28;20050;-66
2021/09/12 11:42:24;;;;;;;1.20;1.00;;;;;;;;;;5015994;28;20060;-66
2021/09/12 11:44:57;;;;;;;1.42;1.00;;;;;;;;;;5020703;28;20045;-66
2021/09/12 11:47:25;;;;;;;4.43;1.10;;;;;;;;;;5017274;28;20111;-65
2021/09/12 11:49:59;;;;;;;1.10;1.00;;;;;;;;;;5016240;28;20053;-65
2021/09/12 11:52:36;;;;;;;1.08;1.08;;;;;;;;;;5018038;28;20049;-65
2021/09/12 11:55:27;;;;;;;2.35;1.33;;;;;;;;;;5016965;28;20654;-65
2021/09/12 11:58:05;;;;;;;1.65;1.38;;;;;;;;;;5016548;28;20100;-66
2021/09/12 12:00:32;;;;;;;2.15;1.40;;;;;;;;;;5016025;28;20104;-65
2021/09/12 12:02:59;;;;;;;2.58;1.52;;;;;;;;;;5002983;28;20104;-66
2021/09/12 12:05:26;;;;;;;1.42;1.27;;;;;;;;;;5018074;28;20045;-65
2021/09/12 12:07:52;;;;;;;2.55;1.52;;;;;;;;;;5000209;28;20053;-66
2021/09/12 12:10:33;;;;;;;1.75;1.10;;;;;;;;;;4999287;28;20100;-66
2021/09/12 12:12:59;;;;;;;1.67;1.00;;;;;;;;;;5019335;28;20050;-70
2021/09/12 12:15:38;;;;;;;3.03;1.58;;;;;;;;;;5003417;28;20060;-72
2021/09/12 12:20:56;;;;;;;2.28;1.40;;;;;;;;;;4957639;26;20129;-72
2021/09/12 12:23:25;;;;;;;2.30;1.58;;;;;;;;;;5010389;28;20064;-76
2021/09/12 12:25:53;;;;;;;1.83;1.50;;;;;;;;;;5008218;28;20144;-74
2021/09/12 12:28:24;;;;;;;2.97;1.60;;;;;;;;;;5016777;28;20049;-78
2021/09/12 12:31:14;;;;;;;1.30;1.20;;;;;;;;;;5001392;28;20099;-74
2021/09/12 12:33:43;;;;;;;1.40;1.10;;;;;;;;;;5017883;28;20100;-79
2021/09/12 12:36:17;;;;;;;2.60;1.13;;;;;;;;;;5024568;28;20496;-75
2021/09/12 12:38:45;;;;;;;1.98;1.40;;;;;;;;;;4988872;28;20077;-73
2021/09/12 12:41:25;;;;;;;1.60;1.50;;;;;;;;;;5016881;28;20096;-78
2021/09/12 12:43:52;;;;;;;2.42;1.05;;;;;;;;;;5018111;28;20057;-71
2021/09/12 12:46:19;;;;;;;1.63;1.10;;;;;;;;;;5017610;28;20057;-71
2021/09/12 12:49:02;;;;;;;2.78;1.30;;;;;;;;;;5017610;28;20046;-69
2021/09/12 12:51:29;;;;;;;1.70;1.13;;;;;;;;;;5019125;28;20072;-70
2021/09/12 12:53:56;;;;;;;2.08;1.10;;;;;;;;;;5016752;28;20077;-70
2021/09/12 12:56:28;;;;;;;1.63;1.48;;;;;;;;;;5018188;28;20045;-73
2021/09/12 12:58:55;;;;;;;1.30;1.20;;;;;;;;;;5019270;28;20073;-72
2021/09/12 13:01:22;;;;;;;1.58;1.30;;;;;;;;;;5020597;28;20464;-72
2021/09/12 13:03:49;;;;;;;2.15;1.30;;;;;;;;;;5022107;28;20046;-77
2021/09/12 13:06:18;;;;;;;2.13;1.10;;;;;;;;;;5019265;28;20045;-80
2021/09/12 13:08:45;;;;;;;1.83;1.30;;;;;;;;;;5023572;28;20054;-73
2021/09/12 13:11:12;;;;;;;1.38;1.13;;;;;;;;;;5000481;28;20072;-67
2021/09/12 13:13:43;;;;;;;1.65;1.50;;;;;;;;;;5019751;28;20099;-67
2021/09/12 13:16:10;;;;;;;3.75;1.77;;;;;;;;;;5020965;28;20057;-67
2021/09/12 13:18:37;;;;;;;2.35;1.20;;;;;;;;;;5022372;28;20045;-66
2021/09/12 13:21:03;;;;;;;1.40;1.30;;;;;;;;;;5020443;28;20053;-68
2021/09/12 13:23:30;;;;;;;1.88;1.15;;;;;;;;;;5021764;28;20115;-70
2021/09/12 13:25:56;;;;;;;2.60;1.25;;;;;;;;;;5020929;28;20508;-67
2021/09/12 13:28:25;;;;;;;1.90;1.40;;;;;;;;;;5021666;28;20041;-67
2021/09/12 13:30:53;;;;;;;2.10;1.40;;;;;;;;;;5021488;28;20054;-67
2021/09/12 13:33:19;;;;;;;1.40;1.30;;;;;;;;;;5020446;28;20042;-67
2021/09/12 13:35:47;;;;;;;1.95;1.35;;;;;;;;;;5021909;28;20111;-68
2021/09/12 13:38:13;;;;;;;2.03;1.20;;;;;;;;;;5020179;28;20046;-67
2021/09/12 13:40:42;;;;;;;2.35;1.50;;;;;;;;;;5021527;28;20042;-67
2021/09/12 13:43:08;;;;;;;1.33;1.20;;;;;;;;;;5019354;28;20058;-69
2021/09/12 13:45:35;;;;;;;1.20;1.10;;;;;;;;;;5018360;28;20061;-67
2021/09/12 13:48:02;;;;;;;1.55;1.33;;;;;;;;;;5020295;28;20061;-66
2021/09/12 13:50:29;;;;;;;2.38;1.55;;;;;;;;;;5022048;28;20103;-67
2021/09/12 13:52:55;;;;;;;2.65;1.83;;;;;;;;;;5020002;28;20053;-67
2021/09/12 13:55:22;;;;;;;1.63;1.35;;;;;;;;;;5021986;28;20049;-66
2021/09/12 13:57:48;;;;;;;2.72;1.40;;;;;;;;;;5019951;28;20049;-66
2021/09/12 14:00:15;;;;;;;2.55;1.20;;;;;;;;;;5021626;28;20099;-66
2021/09/12 14:02:42;;;;;;;1.63;1.40;;;;;;;;;;5018960;28;20127;-73
2021/09/12 14:05:09;;;;;;;1.30;1.13;;;;;;;;;;5021018;28;20049;-73
2021/09/12 14:07:38;;;;;;;1.35;1.25;;;;;;;;;;5020535;28;20574;-72
2021/09/12 14:10:06;;;;;;;1.60;1.23;;;;;;;;;;5019732;28;20049;-72
2021/09/12 14:12:33;;;;;;;3.38;1.52;;;;;;;;;;5027129;28;20398;-72
2021/09/12 14:15:00;;;;;;;2.30;1.35;;;;;;;;;;5018515;28;20096;-71
2021/09/12 14:17:27;;;;;;;2.15;1.42;;;;;;;;;;5025679;28;20057;-72
2021/09/12 14:19:54;;;;;;;3.75;1.58;;;;;;;;;;5020806;28;20460;-72
2021/09/12 14:22:21;;;;;;;2.13;1.40;;;;;;;;;;5021821;28;20049;-73
2021/09/12 14:24:48;;;;;;;1.48;1.20;;;;;;;;;;5006238;28;20104;-66
2021/09/12 14:27:18;;;;;;;1.40;1.20;;;;;;;;;;5021077;28;20107;-67
2021/09/12 14:29:45;;;;;;;2.45;1.60;;;;;;;;;;5023304;28;20057;-70
2021/09/12 14:32:13;;;;;;;2.13;1.70;;;;;;;;;;5024312;28;20045;-69
2021/09/12 14:34:40;;;;;;;1.50;1.40;;;;;;;;;;5020069;28;20069;-69
2021/09/12 14:37:07;;;;;;;2.53;1.73;;;;;;;;;;5019654;28;20684;-65
2021/09/12 14:39:35;;;;;;;1.67;1.40;;;;;;;;;;5020844;28;20056;-70
2021/09/12 14:42:02;;;;;;;1.73;1.40;;;;;;;;;;5023277;28;20111;-71
2021/09/12 14:44:29;;;;;;;1.77;1.25;;;;;;;;;;5024525;28;20046;-70
2021/09/12 14:46:56;;;;;;;2.70;1.73;;;;;;;;;;5015158;28;20057;-69
2021/09/12 14:49:23;;;;;;;2.55;1.60;;;;;;;;;;5018563;28;20497;-69